Main page
METAR-TAF:

METAR-TAF

Airports :

Greenville, Maine, United States

latitude: 45-28N, longitude: 069-35W, elevation: 1401 ft

Current weather observation

The report was made 56 minutes ago, at 12:56 UTC
Calm wind
Temperature 45°F
Humidity 93%
Pressure 29.71 in. Hg

METAR: KGNR 201256Z AUTO 00000KT 07/06 A2971 RMK AO1 SLP070 P0002 T00670061

Time: 09:52 (13:52 UTC)


TAF: missing

Weather observations and forecasts of more than 4000 airports (METAR and TAF reports).

The available stations are represented by yellow and red dots on the map.

Hover mouse over dot to see the name of the station.

Then click to see weather observations and forecasts.

To change the map : click on the green buttons with a black cross to zoom in, on the green button with a dash to zoom out, or on the green arrows for adjacent maps.


METAR-TAF: